Time;durP1;ratioP1;P1;durP2;ratioP2;P2;SDS_P1;SDS_P2;PMS_P1;PMS_P2;Temp;Humidity;BMP_temperature;BMP_pressure;BME280_temperature;BME280_humidity;BME280_pressure;Samples;Min_cycle;Max_cycle;Signal;HPM_P1;HPM_P2
2021/04/11 00:00:40;;;;;;;7.33;6.40;;;;;20.90;99534.00;;;;2074502;28;20737;-44
2021/04/11 00:01:40;;;;;;;7.20;6.50;;;;;20.90;99539.00;;;;2077790;28;20463;-44
2021/04/11 00:02:40;;;;;;;7.50;6.80;;;;;20.90;99541.00;;;;2076708;28;20214;-45
2021/04/11 00:03:41;;;;;;;7.27;6.20;;;;;20.90;99537.00;;;;2065976;28;20222;-44
2021/04/11 00:04:41;;;;;;;7.80;6.80;;;;;20.90;99539.00;;;;2075505;28;20206;-44
2021/04/11 00:05:42;;;;;;;6.57;5.77;;;;;20.90;99535.00;;;;2072719;28;20237;-46
2021/04/11 00:06:42;;;;;;;6.50;5.87;;;;;20.90;99529.00;;;;2074919;28;20807;-44
2021/04/11 00:07:42;;;;;;;7.47;6.20;;;;;20.90;99537.00;;;;2073634;28;20236;-44
2021/04/11 00:08:43;;;;;;;7.90;7.10;;;;;20.80;99542.00;;;;2073524;28;20206;-44
2021/04/11 00:09:43;;;;;;;7.20;6.50;;;;;20.90;99537.00;;;;2078090;28;20209;-44
2021/04/11 00:10:48;;;;;;;6.90;6.20;;;;;20.90;99537.00;;;;2077945;28;20213;-45
2021/04/11 00:11:48;;;;;;;7.53;6.70;;;;;20.90;99536.00;;;;2077712;28;20236;-45
2021/04/11 00:12:49;;;;;;;7.93;6.60;;;;;20.90;99536.00;;;;2074754;28;20246;-44
2021/04/11 00:13:51;;;;;;;6.87;5.80;;;;;20.70;99548.00;;;;2073143;28;20218;-44
2021/04/11 00:14:51;;;;;;;7.35;5.55;;;;;20.90;99533.00;;;;2071654;28;20229;-44
2021/04/11 00:15:52;;;;;;;6.87;6.03;;;;;20.90;99532.00;;;;2077947;28;20347;-44
2021/04/11 00:16:52;;;;;;;7.10;6.47;;;;;20.90;99520.00;;;;2073599;28;20257;-45
2021/04/11 00:17:53;;;;;;;6.90;6.20;;;;;20.90;99532.00;;;;2071009;28;20207;-45
2021/04/11 00:18:53;;;;;;;6.10;5.50;;;;;20.80;99529.00;;;;2067230;28;20226;-43
2021/04/11 00:19:53;;;;;;;5.77;5.27;;;;;20.80;99523.00;;;;2072404;28;20210;-44
2021/04/11 00:20:54;;;;;;;5.80;5.23;;;;;20.90;99526.00;;;;2069862;28;20549;-45
2021/04/11 00:21:55;;;;;;;5.87;5.10;;;;;20.80;99519.00;;;;2069829;28;20211;-45
2021/04/11 00:22:55;;;;;;;6.90;6.20;;;;;20.80;99521.00;;;;2066899;28;20576;-46
2021/04/11 00:23:55;;;;;;;5.13;4.63;;;;;20.90;99514.00;;;;2068707;28;20229;-44
2021/04/11 00:24:56;;;;;;;5.97;5.37;;;;;20.80;99517.00;;;;2069966;28;20211;-44
2021/04/11 00:25:56;;;;;;;5.93;5.33;;;;;20.80;99521.00;;;;2069647;28;20210;-45
2021/04/11 00:26:57;;;;;;;6.07;5.50;;;;;20.80;99516.00;;;;2069917;28;20305;-44
2021/04/11 00:27:57;;;;;;;6.13;5.30;;;;;20.80;99520.00;;;;2073678;28;20220;-45
2021/04/11 00:28:58;;;;;;;5.97;5.37;;;;;20.80;99515.00;;;;2065226;28;20215;-43
2021/04/11 00:29:58;;;;;;;5.10;4.60;;;;;20.80;99519.00;;;;2069766;28;20210;-46
2021/04/11 00:30:59;;;;;;;6.10;5.53;;;;;20.80;99515.00;;;;2073558;28;20342;-45
2021/04/11 00:31:59;;;;;;;5.50;5.00;;;;;20.80;99510.00;;;;2073843;28;20214;-45
2021/04/11 00:33:00;;;;;;;5.23;4.73;;;;;20.80;99507.00;;;;2077526;28;20266;-45
2021/04/11 00:34:01;;;;;;;5.65;5.05;;;;;20.80;99509.00;;;;2076259;28;20217;-44
2021/04/11 00:35:01;;;;;;;5.30;4.80;;;;;20.80;99508.00;;;;2072730;28;20221;-44
2021/04/11 00:36:15;;;;;;;5.50;4.90;;;;;20.80;99510.00;;;;2077973;28;20245;-44
2021/04/11 00:37:16;;;;;;;6.45;5.25;;;;;20.80;99508.00;;;;2076799;28;20598;-49
2021/04/11 00:38:16;;;;;;;4.60;4.20;;;;;20.80;99498.00;;;;2075774;28;20309;-44
2021/04/11 00:39:16;;;;;;;5.10;4.60;;;;;20.80;99502.00;;;;2072350;28;20229;-45
2021/04/11 00:40:20;;;;;;;5.53;5.03;;;;;20.80;99507.00;;;;2073832;28;20620;-48
2021/04/11 00:41:32;;;;;;;5.28;4.45;;;;;20.80;99502.00;;;;2079430;28;20210;-44
2021/04/11 00:42:35;;;;;;;5.10;4.60;;;;;20.80;99500.00;;;;2076443;28;20213;-44
2021/04/11 00:43:38;;;;;;;5.35;4.85;;;;;20.80;99504.00;;;;2071254;28;20238;-43
2021/04/11 00:44:38;;;;;;;4.93;4.45;;;;;20.80;99492.00;;;;2062697;28;20223;-44
2021/04/11 00:45:39;;;;;;;4.83;4.43;;;;;20.80;99506.00;;;;2059301;28;20211;-46
2021/04/11 00:46:52;;;;;;;5.07;4.40;;;;;20.80;99504.00;;;;2070741;28;20245;-46
2021/04/11 00:47:53;;;;;;;5.10;4.53;;;;;20.80;99511.00;;;;2069815;28;20209;-45
2021/04/11 00:48:53;;;;;;;4.60;4.20;;;;;20.70;99494.00;;;;2055751;28;20216;-43
2021/04/11 00:49:54;;;;;;;4.33;3.93;;;;;20.80;99502.00;;;;2069822;28;20293;-46
2021/04/11 00:51:05;;;;;;;4.63;4.23;;;;;20.80;99506.00;;;;2066572;28;20215;-44
2021/04/11 00:52:07;;;;;;;4.75;4.22;;;;;20.80;99498.00;;;;2077867;28;20210;-45
2021/04/11 00:53:08;;;;;;;4.13;3.72;;;;;20.80;99504.00;;;;2075782;28;20309;-43
2021/04/11 00:54:08;;;;;;;5.00;4.33;;;;;20.70;99500.00;;;;2073112;28;20226;-43
2021/04/11 00:55:09;;;;;;;4.80;4.07;;;;;20.70;99501.00;;;;2068910;28;21484;-43
2021/04/11 00:56:10;;;;;;;4.43;4.00;;;;;20.70;99488.00;;;;2064922;28;20291;-45
2021/04/11 00:57:10;;;;;;;4.30;3.90;;;;;20.70;99498.00;;;;2070613;28;20226;-45
2021/04/11 00:58:10;;;;;;;4.53;4.00;;;;;20.70;99488.00;;;;2062488;28;20455;-43
2021/04/11 00:59:11;;;;;;;4.53;4.10;;;;;20.70;99489.00;;;;2069965;28;20226;-43
2021/04/11 01:00:12;;;;;;;4.43;4.00;;;;;20.70;99487.00;;;;2070204;28;20210;-45
2021/04/11 01:01:12;;;;;;;4.10;3.70;;;;;20.70;99488.00;;;;2070486;28;20221;-45
2021/04/11 01:02:12;;;;;;;3.73;3.43;;;;;20.70;99489.00;;;;2075118;28;20461;-43
2021/04/11 01:03:21;;;;;;;4.23;3.83;;;;;20.70;99480.00;;;;2071203;28;20211;-43
2021/04/11 01:04:21;;;;;;;4.40;4.00;;;;;20.70;99488.00;;;;2069092;28;20293;-47
2021/04/11 01:05:24;;;;;;;4.20;3.73;;;;;20.70;99478.00;;;;2071658;28;20211;-46
2021/04/11 01:06:33;;;;;;;3.63;3.33;;;;;20.70;99475.00;;;;2078822;28;21151;-44
2021/04/11 01:07:33;;;;;;;3.60;3.30;;;;;20.70;99471.00;;;;2068875;28;20625;-43
2021/04/11 01:08:33;;;;;;;4.63;3.80;;;;;20.70;99477.00;;;;2070660;28;20207;-45
2021/04/11 01:09:36;;;;;;;4.10;3.80;;;;;20.70;99478.00;;;;2074436;28;20252;-44
2021/04/11 01:10:39;;;;;;;3.67;3.38;;;;;20.70;99467.00;;;;2070512;28;20211;-43
2021/04/11 01:11:40;;;;;;;4.30;3.90;;;;;20.70;99476.00;;;;2069279;28;20785;-45
2021/04/11 01:12:41;;;;;;;3.60;3.30;;;;;20.70;99470.00;;;;2070311;28;20236;-44
2021/04/11 01:13:50;;;;;;;4.10;3.40;;;;;20.70;99468.00;;;;2071678;28;20258;-43
2021/04/11 01:14:51;;;;;;;4.00;3.70;;;;;20.70;99469.00;;;;2072363;28;20610;-43
2021/04/11 01:15:51;;;;;;;3.83;3.53;;;;;20.70;99467.00;;;;2077217;28;20245;-44
2021/04/11 01:16:52;;;;;;;3.73;3.30;;;;;20.60;99475.00;;;;2063803;28;20215;-45
2021/04/11 01:17:52;;;;;;;3.90;3.60;;;;;20.70;99478.00;;;;2066281;28;20214;-44
2021/04/11 01:18:53;;;;;;;3.07;2.87;;;;;20.70;99474.00;;;;2073401;28;20667;-43
2021/04/11 01:19:53;;;;;;;4.00;3.70;;;;;20.70;99473.00;;;;2070416;28;20583;-43
2021/04/11 01:20:54;;;;;;;3.63;3.33;;;;;20.70;99470.00;;;;2075247;28;20236;-43
2021/04/11 01:22:16;;;;;;;4.38;3.97;;;;;20.70;99475.00;;;;2067277;28;20745;-47
2021/04/11 01:23:36;;;;;;;3.90;3.50;;;;;20.70;99474.00;;;;2074744;28;20224;-44
2021/04/11 01:24:43;;;;;;;3.85;3.45;;;;;20.70;99473.00;;;;2074892;28;20224;-45
2021/04/11 01:25:44;;;;;;;3.90;3.45;;;;;20.60;99465.00;;;;2071995;28;20273;-44
2021/04/11 01:26:45;;;;;;;4.70;3.88;;;;;20.60;99469.00;;;;2064238;28;20211;-44
2021/04/11 01:27:46;;;;;;;3.73;3.43;;;;;20.60;99467.00;;;;2065821;28;20978;-44
2021/04/11 01:28:47;;;;;;;3.40;3.10;;;;;20.60;99458.00;;;;2059835;28;20223;-45
2021/04/11 01:29:47;;;;;;;3.58;3.28;;;;;20.60;99471.00;;;;2064612;28;20218;-44
2021/04/11 01:30:48;;;;;;;3.80;3.40;;;;;20.60;99471.00;;;;2066431;28;20298;-43
2021/04/11 01:31:48;;;;;;;4.70;3.70;;;;;20.60;99464.00;;;;2067161;28;20215;-45
2021/04/11 01:32:49;;;;;;;3.50;3.20;;;;;20.60;99469.00;;;;2070548;28;20223;-46
2021/04/11 01:33:51;;;;;;;3.60;3.30;;;;;20.60;99470.00;;;;2063319;28;20254;-45
2021/04/11 01:34:53;;;;;;;4.32;3.30;;;;;20.60;99468.00;;;;2069868;28;20623;-46
2021/04/11 01:35:55;;;;;;;3.95;3.45;;;;;20.60;99462.00;;;;2064184;28;20690;-43
2021/04/11 01:36:56;;;;;;;3.50;3.20;;;;;20.60;99463.00;;;;2069380;28;20218;-43
2021/04/11 01:37:56;;;;;;;3.40;2.97;;;;;20.60;99466.00;;;;2069609;28;20214;-45
2021/04/11 01:38:59;;;;;;;3.50;3.20;;;;;20.60;99478.00;;;;2052919;28;20216;-44
2021/04/11 01:39:59;;;;;;;3.40;3.10;;;;;20.60;99461.00;;;;2061737;28;20538;-44
2021/04/11 01:41:12;;;;;;;4.03;3.20;;;;;20.60;99473.00;;;;2070857;28;20325;-45
2021/04/11 01:42:13;;;;;;;3.60;3.30;;;;;20.60;99467.00;;;;2067966;28;20249;-45
2021/04/11 01:43:14;;;;;;;3.40;3.10;;;;;20.60;99460.00;;;;2068547;28;20296;-44
2021/04/11 01:44:16;;;;;;;2.73;2.53;;;;;20.60;99452.00;;;;2056390;28;20635;-44
2021/04/11 01:45:16;;;;;;;3.10;2.90;;;;;20.60;99456.00;;;;2060431;28;20310;-44
2021/04/11 01:46:17;;;;;;;3.20;2.97;;;;;20.60;99456.00;;;;2071561;28;20207;-46
2021/04/11 01:47:17;;;;;;;3.50;2.70;;;;;20.60;99454.00;;;;2070176;28;20211;-45
2021/04/11 01:48:18;;;;;;;5.20;3.10;;;;;20.60;99452.00;;;;2062265;28;20301;-44
2021/04/11 01:49:19;;;;;;;3.40;3.10;;;;;20.60;99459.00;;;;2069747;28;20218;-44
2021/04/11 01:50:20;;;;;;;3.28;2.95;;;;;20.60;99456.00;;;;2070254;28;20699;-44
2021/04/11 01:51:23;;;;;;;3.33;2.90;;;;;20.60;99452.00;;;;2059874;28;20222;-43
2021/04/11 01:52:26;;;;;;;3.50;2.92;;;;;20.60;99441.00;;;;2065710;28;20206;-44
2021/04/11 01:53:26;;;;;;;3.22;2.92;;;;;20.60;99444.00;;;;2077929;28;20216;-44
2021/04/11 01:54:29;;;;;;;2.87;2.53;;;;;20.60;99451.00;;;;2060161;28;20708;-44
2021/04/11 01:55:30;;;;;;;3.08;2.80;;;;;20.60;99447.00;;;;2064667;28;20215;-44
2021/04/11 01:56:30;;;;;;;3.30;3.00;;;;;20.60;99448.00;;;;2072694;28;20719;-44
2021/04/11 01:57:32;;;;;;;3.00;2.80;;;;;20.60;99441.00;;;;2066630;28;20811;-43
2021/04/11 01:58:33;;;;;;;2.80;2.60;;;;;20.60;99436.00;;;;2065408;28;20207;-48
2021/04/11 01:59:34;;;;;;;2.95;2.65;;;;;20.60;99443.00;;;;2074696;28;20587;-44
2021/04/11 02:00:37;;;;;;;3.10;2.77;;;;;20.60;99438.00;;;;2075170;28;20210;-45
2021/04/11 02:01:37;;;;;;;3.88;2.88;;;;;20.60;99436.00;;;;2071212;28;20601;-44
2021/04/11 02:02:38;;;;;;;5.13;3.30;;;;;20.60;99444.00;;;;2073753;28;20214;-44
2021/04/11 02:03:38;;;;;;;3.00;2.80;;;;;20.60;99443.00;;;;2074152;28;20206;-45
2021/04/11 02:04:39;;;;;;;3.47;3.17;;;;;20.60;99443.00;;;;2077016;28;20797;-43
2021/04/11 02:05:43;;;;;;;3.30;3.00;;;;;20.50;99438.00;;;;2066862;28;20627;-45
2021/04/11 02:06:46;;;;;;;3.95;2.90;;;;;20.50;99449.00;;;;2068184;28;20306;-44
2021/04/11 02:07:46;;;;;;;5.30;3.30;;;;;20.60;99449.00;;;;2058622;28;20220;-45
2021/04/11 02:08:50;;;;;;;3.27;2.80;;;;;20.50;99451.00;;;;2060979;28;20215;-44
2021/04/11 02:09:50;;;;;;;3.20;2.88;;;;;20.50;99443.00;;;;2069092;28;20280;-44
2021/04/11 02:10:52;;;;;;;2.50;2.20;;;;;20.50;99437.00;;;;2069945;28;20804;-44
2021/04/11 02:11:53;;;;;;;3.50;3.05;;;;;20.50;99434.00;;;;2070120;28;20210;-44
2021/04/11 02:12:53;;;;;;;3.70;3.10;;;;;20.60;99440.00;;;;2070022;28;20309;-45
2021/04/11 02:13:54;;;;;;;2.77;2.57;;;;;20.50;99439.00;;;;2069627;28;20214;-45
2021/04/11 02:14:54;;;;;;;4.00;2.80;;;;;20.50;99439.00;;;;2077717;28;20248;-45
2021/04/11 02:15:57;;;;;;;3.07;2.77;;;;;20.50;99441.00;;;;2074289;28;21739;-45
2021/04/11 02:16:58;;;;;;;3.10;2.80;;;;;20.50;99438.00;;;;2069908;28;20292;-45
2021/04/11 02:17:58;;;;;;;2.60;2.30;;;;;20.50;99436.00;;;;2075826;28;20718;-43
2021/04/11 02:19:06;;;;;;;2.90;2.70;;;;;20.50;99435.00;;;;2075587;28;20225;-44
2021/04/11 02:20:08;;;;;;;3.20;2.90;;;;;20.50;99441.00;;;;2067276;28;20218;-45
2021/04/11 02:21:16;;;;;;;3.13;2.83;;;;;20.50;99438.00;;;;2066061;28;20245;-44
2021/04/11 02:22:19;;;;;;;3.03;2.80;;;;;20.50;99437.00;;;;2059234;28;20247;-43
2021/04/11 02:23:19;;;;;;;2.70;2.45;;;;;20.50;99435.00;;;;2058535;28;20221;-44
2021/04/11 02:24:20;;;;;;;3.17;2.87;;;;;20.50;99436.00;;;;2076373;28;20295;-45
2021/04/11 02:25:22;;;;;;;3.17;2.73;;;;;20.50;99437.00;;;;2077702;28;20730;-45
2021/04/11 02:26:22;;;;;;;2.88;2.63;;;;;20.50;99428.00;;;;2059782;28;20707;-44
2021/04/11 02:27:23;;;;;;;2.50;2.30;;;;;20.50;99442.00;;;;2056528;28;20215;-44
2021/04/11 02:28:26;;;;;;;2.83;2.63;;;;;20.50;99440.00;;;;2065256;28;20872;-44
2021/04/11 02:29:26;;;;;;;2.90;2.70;;;;;20.50;99442.00;;;;2069838;28;20309;-45
2021/04/11 02:30:27;;;;;;;2.60;2.40;;;;;20.50;99445.00;;;;2057816;28;20228;-44
2021/04/11 02:31:28;;;;;;;3.00;2.33;;;;;20.50;99449.00;;;;2055019;28;20469;-44
2021/04/11 02:32:28;;;;;;;3.27;3.00;;;;;20.50;99449.00;;;;2069732;28;20305;-45
2021/04/11 02:33:29;;;;;;;3.30;2.97;;;;;20.50;99442.00;;;;2077912;28;20344;-43
2021/04/11 02:34:30;;;;;;;3.07;2.77;;;;;20.50;99455.00;;;;2065550;28;20462;-44
2021/04/11 02:35:31;;;;;;;2.60;2.40;;;;;20.50;99456.00;;;;2061615;28;20577;-45
2021/04/11 02:36:37;;;;;;;2.63;2.43;;;;;20.50;99452.00;;;;2068964;28;20218;-46
2021/04/11 02:37:37;;;;;;;3.20;2.70;;;;;20.50;99459.00;;;;2072204;28;20238;-44
2021/04/11 02:38:38;;;;;;;2.63;2.43;;;;;20.50;99455.00;;;;2069750;28;20241;-44
2021/04/11 02:39:39;;;;;;;2.80;2.60;;;;;20.40;99454.00;;;;2061330;28;20598;-44
2021/04/11 02:40:44;;;;;;;3.33;3.13;;;;;20.40;99458.00;;;;2061222;28;20294;-45
2021/04/11 02:41:45;;;;;;;3.17;2.88;;;;;20.40;99462.00;;;;2077735;28;20271;-44
2021/04/11 02:42:45;;;;;;;3.00;2.80;;;;;20.50;99452.00;;;;2071806;28;20215;-45
2021/04/11 02:43:45;;;;;;;3.60;3.17;;;;;20.40;99471.00;;;;2066320;28;20281;-44
2021/04/11 02:44:47;;;;;;;3.47;3.23;;;;;20.40;99470.00;;;;2068592;28;20223;-45
2021/04/11 02:45:47;;;;;;;4.00;3.70;;;;;20.40;99476.00;;;;2068801;28;20244;-43
2021/04/11 02:46:48;;;;;;;4.23;3.87;;;;;20.40;99470.00;;;;2067684;28;20210;-44
2021/04/11 02:47:50;;;;;;;4.03;3.73;;;;;20.40;99473.00;;;;2077228;28;20217;-45
2021/04/11 02:48:54;;;;;;;4.93;4.50;;;;;20.20;99472.00;;;;2069075;28;20619;-45
2021/04/11 02:49:54;;;;;;;4.75;4.35;;;;;20.40;99475.00;;;;2066238;28;20211;-45
2021/04/11 02:50:55;;;;;;;5.60;5.13;;;;;20.40;99473.00;;;;2077503;28;20225;-44
2021/04/11 02:51:55;;;;;;;5.77;5.27;;;;;20.40;99471.00;;;;2062540;28;20521;-45
2021/04/11 02:53:01;;;;;;;6.87;6.27;;;;;20.40;99485.00;;;;2068565;28;20222;-44
2021/04/11 02:54:02;;;;;;;5.65;5.15;;;;;20.40;99486.00;;;;2072391;28;20290;-44
2021/04/11 02:55:03;;;;;;;6.40;5.80;;;;;20.40;99493.00;;;;2072814;28;20237;-44
2021/04/11 02:56:04;;;;;;;6.27;5.67;;;;;20.40;99489.00;;;;2054142;28;20220;-45
2021/04/11 02:57:04;;;;;;;6.37;5.77;;;;;20.40;99489.00;;;;2061730;28;20677;-45
2021/04/11 02:58:05;;;;;;;6.93;6.33;;;;;20.40;99482.00;;;;2061585;28;20223;-45
2021/04/11 02:59:05;;;;;;;6.70;6.20;;;;;20.40;99485.00;;;;2061535;28;20237;-44
2021/04/11 03:00:07;;;;;;;6.60;6.00;;;;;20.40;99488.00;;;;2069664;28;20219;-44
2021/04/11 03:01:13;;;;;;;7.38;6.78;;;;;20.40;99498.00;;;;2070904;28;20241;-43
2021/04/11 03:02:14;;;;;;;6.55;5.95;;;;;20.40;99493.00;;;;2073750;28;20229;-44
2021/04/11 03:03:14;;;;;;;6.77;6.17;;;;;20.40;99493.00;;;;2068364;28;20215;-46
2021/04/11 03:04:20;;;;;;;7.57;6.87;;;;;20.40;99496.00;;;;2063761;28;20219;-44
2021/04/11 03:05:21;;;;;;;6.70;6.20;;;;;20.40;99501.00;;;;2061748;28;20691;-43
2021/04/11 03:06:22;;;;;;;6.28;5.78;;;;;20.40;99498.00;;;;2069621;28;20215;-44
2021/04/11 03:07:24;;;;;;;7.45;6.90;;;;;20.40;99504.00;;;;2069656;28;20215;-43
2021/04/11 03:08:28;;;;;;;6.43;5.93;;;;;20.40;99499.00;;;;2067955;28;20697;-44
2021/04/11 03:09:35;;;;;;;7.03;6.43;;;;;20.40;99497.00;;;;2060844;28;20258;-43
2021/04/11 03:10:58;;;;;;;6.07;5.57;;;;;20.40;99511.00;;;;2063095;28;20673;-45
2021/04/11 03:11:58;;;;;;;6.88;6.28;;;;;20.40;99513.00;;;;2063620;28;20219;-46
2021/04/11 03:12:59;;;;;;;7.37;6.67;;;;;20.40;99501.00;;;;2070442;28;20203;-44
2021/04/11 03:13:59;;;;;;;7.30;6.80;;;;;20.40;99513.00;;;;2072769;28;20715;-44
2021/04/11 03:15:00;;;;;;;5.37;4.97;;;;;20.40;99512.00;;;;2069552;28;20871;-44
2021/04/11 03:16:00;;;;;;;6.43;5.90;;;;;20.40;99503.00;;;;2066829;28;20732;-45
2021/04/11 03:17:02;;;;;;;5.80;5.30;;;;;20.40;99509.00;;;;2076684;28;20198;-46
2021/04/11 03:18:03;;;;;;;5.95;5.35;;;;;20.40;99516.00;;;;2066031;28;20238;-43
2021/04/11 03:19:03;;;;;;;6.20;5.60;;;;;20.40;99513.00;;;;2075013;28;20695;-44
2021/04/11 03:20:15;;;;;;;5.53;5.13;;;;;20.40;99514.00;;;;2057376;28;20208;-46
2021/04/11 03:21:15;;;;;;;5.20;4.80;;;;;20.30;99525.00;;;;2054957;28;20216;-44
2021/04/11 03:22:16;;;;;;;5.80;5.33;;;;;20.30;99519.00;;;;2062470;28;20322;-45
2021/04/11 03:23:17;;;;;;;4.77;4.47;;;;;20.30;99531.00;;;;2068967;28;20225;-45
2021/04/11 03:24:17;;;;;;;4.63;4.23;;;;;20.30;99533.00;;;;2069942;28;20555;-44
2021/04/11 03:25:17;;;;;;;4.70;4.30;;;;;20.30;99531.00;;;;2069192;28;20242;-46
2021/04/11 03:26:31;;;;;;;4.97;4.60;;;;;20.30;99531.00;;;;2073049;28;20218;-47
2021/04/11 03:27:33;;;;;;;4.88;4.47;;;;;20.30;99528.00;;;;2068081;28;20214;-44
2021/04/11 03:28:36;;;;;;;4.40;4.10;;;;;20.30;99537.00;;;;2068769;28;20640;-46
2021/04/11 03:29:39;;;;;;;4.43;4.10;;;;;20.30;99531.00;;;;2066684;28;20230;-44
2021/04/11 03:30:44;;;;;;;4.57;4.18;;;;;20.30;99544.00;;;;2061674;28;20238;-44
2021/04/11 03:31:52;;;;;;;4.55;4.25;;;;;20.30;99540.00;;;;2062473;28;20249;-44
2021/04/11 03:32:58;;;;;;;4.25;3.95;;;;;20.30;99555.00;;;;2060494;28;20207;-45
2021/04/11 03:33:59;;;;;;;4.47;4.18;;;;;20.30;99546.00;;;;2051067;28;20213;-45
2021/04/11 03:35:01;;;;;;;4.25;3.95;;;;;20.30;99551.00;;;;2062087;28;20211;-45
2021/04/11 03:36:01;;;;;;;3.78;3.47;;;;;20.30;99534.00;;;;2061518;28;20214;-44
2021/04/11 03:37:02;;;;;;;3.90;3.60;;;;;20.30;99539.00;;;;2067829;28;20572;-43
2021/04/11 03:38:03;;;;;;;4.77;4.37;;;;;20.20;99538.00;;;;2057340;28;20215;-43
2021/04/11 03:39:03;;;;;;;4.20;3.90;;;;;20.30;99543.00;;;;2062131;28;20471;-45
2021/04/11 03:40:05;;;;;;;4.13;3.83;;;;;20.30;99542.00;;;;2063837;28;20227;-44
2021/04/11 03:41:05;;;;;;;3.67;3.38;;;;;20.30;99549.00;;;;2060415;28;20318;-44
2021/04/11 03:42:07;;;;;;;3.53;3.33;;;;;20.30;99549.00;;;;2070382;28;20735;-45
2021/04/11 03:43:13;;;;;;;3.80;3.50;;;;;20.30;99553.00;;;;2069767;28;20214;-44
2021/04/11 03:44:18;;;;;;;3.70;3.40;;;;;20.20;99547.00;;;;2059873;28;20290;-44
2021/04/11 03:45:18;;;;;;;3.25;3.05;;;;;20.20;99566.00;;;;2069492;28;20310;-43
2021/04/11 03:46:38;;;;;;;3.40;3.20;;;;;20.30;99545.00;;;;2061853;28;20218;-44
2021/04/11 03:47:42;;;;;;;3.63;3.33;;;;;20.20;99547.00;;;;2067762;28;20210;-44
2021/04/11 03:48:49;;;;;;;3.33;3.13;;;;;20.20;99548.00;;;;2065607;28;20214;-45
2021/04/11 03:50:07;;;;;;;3.60;3.30;;;;;20.20;99560.00;;;;2069578;28;20226;-43
2021/04/11 03:51:22;;;;;;;3.38;3.17;;;;;20.20;99555.00;;;;2071615;28;20298;-44
2021/04/11 03:52:28;;;;;;;3.80;3.50;;;;;20.20;99562.00;;;;2060914;28;20211;-45
2021/04/11 03:53:39;;;;;;;4.03;3.72;;;;;20.20;99564.00;;;;2069602;28;20221;-44
2021/04/11 03:54:40;;;;;;;4.07;3.78;;;;;20.20;99566.00;;;;2063400;28;20215;-43
2021/04/11 03:55:42;;;;;;;4.30;4.00;;;;;20.20;99569.00;;;;2063594;28;20286;-44
2021/04/11 03:56:44;;;;;;;4.35;4.05;;;;;20.20;99571.00;;;;2065336;28;20309;-44
2021/04/11 03:57:50;;;;;;;3.70;3.45;;;;;20.20;99567.00;;;;2069029;28;20222;-46
2021/04/11 03:58:53;;;;;;;5.40;5.00;;;;;20.20;99568.00;;;;2062188;28;20258;-45
2021/04/11 04:00:08;;;;;;;4.72;4.35;;;;;20.20;99575.00;;;;2055427;28;20205;-44
2021/04/11 04:01:15;;;;;;;4.90;4.50;;;;;20.20;99576.00;;;;2057497;28;20235;-45
2021/04/11 04:02:16;;;;;;;5.38;4.97;;;;;20.20;99579.00;;;;2062726;28;20219;-45
2021/04/11 04:03:19;;;;;;;4.67;4.27;;;;;20.20;99581.00;;;;2068245;28;20252;-44
2021/04/11 04:04:20;;;;;;;5.07;4.68;;;;;20.20;99595.00;;;;2061294;28;20469;-44
2021/04/11 04:05:24;;;;;;;5.05;4.65;;;;;20.20;99587.00;;;;2058807;28;20238;-45
2021/04/11 04:06:30;;;;;;;5.68;5.18;;;;;20.20;99587.00;;;;2061722;28;20234;-44
2021/04/11 04:07:30;;;;;;;5.05;4.65;;;;;20.20;99591.00;;;;2077393;28;20703;-44
2021/04/11 04:08:30;;;;;;;5.50;5.00;;;;;20.20;99575.00;;;;2078118;28;20210;-44
2021/04/11 04:09:31;;;;;;;5.73;5.30;;;;;20.20;99580.00;;;;2073092;28;20322;-45
2021/04/11 04:10:39;;;;;;;5.10;4.70;;;;;20.20;99566.00;;;;2077309;28;20666;-43
2021/04/11 04:11:58;;;;;;;5.13;4.72;;;;;20.20;99583.00;;;;2078148;28;20206;-45
2021/04/11 04:13:26;;;;;;;5.88;5.38;;;;;20.20;99581.00;;;;2073079;28;20241;-44
2021/04/11 04:14:52;;;;;;;5.80;5.30;;;;;20.20;99586.00;;;;2060098;28;20227;-43
2021/04/11 04:16:13;;;;;;;5.75;5.25;;;;;20.20;99599.00;;;;2074298;28;20757;-44
2021/04/11 04:17:28;;;;;;;5.03;4.57;;;;;20.20;99587.00;;;;2075677;28;20225;-46
2021/04/11 04:18:32;;;;;;;5.20;4.80;;;;;20.20;99595.00;;;;2067884;28;20724;-44
2021/04/11 04:19:43;;;;;;;5.32;4.93;;;;;20.20;99597.00;;;;2079643;28;20715;-44
2021/04/11 04:20:52;;;;;;;4.85;4.45;;;;;20.20;99595.00;;;;2065202;28;20213;-45
2021/04/11 04:21:57;;;;;;;5.13;4.65;;;;;20.10;99594.00;;;;2068333;28;20219;-43
2021/04/11 04:23:21;;;;;;;4.90;4.50;;;;;20.20;99591.00;;;;2069207;28;21035;-45
2021/04/11 04:24:35;;;;;;;5.68;5.18;;;;;20.20;99589.00;;;;2064668;28;20211;-45
2021/04/11 04:26:14;;;;;;;4.95;4.55;;;;;20.20;99602.00;;;;2057162;28;20223;-44
2021/04/11 04:27:27;;;;;;;4.90;4.50;;;;;20.10;99597.00;;;;2071331;28;20215;-45
2021/04/11 04:28:42;;;;;;;4.43;4.13;;;;;20.10;99594.00;;;;2075210;28;20664;-45
2021/04/11 04:29:56;;;;;;;4.68;4.28;;;;;20.20;99595.00;;;;2074022;28;20220;-44
2021/04/11 04:31:01;;;;;;;4.78;4.38;;;;;20.10;99606.00;;;;2072349;28;20222;-46
2021/04/11 04:32:23;;;;;;;4.07;3.78;;;;;20.10;99605.00;;;;2067476;28;20726;-45
2021/04/11 04:33:34;;;;;;;4.20;3.90;;;;;20.10;99600.00;;;;2073934;28;20230;-44
2021/04/11 04:34:40;;;;;;;4.10;3.80;;;;;20.10;99597.00;;;;2073843;28;20218;-45
2021/04/11 04:35:53;;;;;;;4.72;4.38;;;;;20.10;99603.00;;;;2069491;28;20214;-43
2021/04/11 04:37:17;;;;;;;4.60;4.30;;;;;20.10;99609.00;;;;2075294;28;20711;-44
2021/04/11 04:38:28;;;;;;;4.15;3.85;;;;;20.10;99608.00;;;;2068687;28;20221;-45
2021/04/11 04:39:51;;;;;;;4.10;3.80;;;;;20.10;99609.00;;;;2062816;28;20227;-44
2021/04/11 04:41:11;;;;;;;3.45;3.25;;;;;20.10;99613.00;;;;2067901;28;20218;-46
2021/04/11 04:42:16;;;;;;;3.90;3.60;;;;;20.10;99608.00;;;;2067789;28;20215;-43
2021/04/11 04:43:42;;;;;;;4.53;4.20;;;;;20.10;99607.00;;;;2066945;28;20219;-44
2021/04/11 04:45:05;;;;;;;4.05;3.75;;;;;20.10;99614.00;;;;2071870;28;20722;-44
2021/04/11 04:46:31;;;;;;;4.00;3.70;;;;;20.10;99611.00;;;;2073716;28;20720;-44
2021/04/11 04:47:54;;;;;;;4.45;4.15;;;;;20.10;99628.00;;;;2077198;28;20304;-44
2021/04/11 04:48:59;;;;;;;4.13;3.83;;;;;20.10;99632.00;;;;2059392;28;20672;-43
2021/04/11 04:50:17;;;;;;;4.00;3.70;;;;;20.10;99633.00;;;;2062187;28;20219;-46
2021/04/11 04:51:21;;;;;;;4.07;3.78;;;;;20.00;99634.00;;;;2069733;28;20785;-44
2021/04/11 04:52:25;;;;;;;4.32;4.03;;;;;20.10;99636.00;;;;2062601;28;20222;-43
2021/04/11 04:53:39;;;;;;;4.18;3.88;;;;;20.10;99626.00;;;;2064297;28;20250;-45
2021/04/11 04:55:19;;;;;;;4.25;3.95;;;;;20.10;99624.00;;;;2056030;28;20234;-43
2021/04/11 04:56:22;;;;;;;4.57;4.18;;;;;20.00;99625.00;;;;2068058;28;22174;-44
2021/04/11 04:57:29;;;;;;;4.07;3.70;;;;;20.00;99625.00;;;;2067361;28;20222;-45
2021/04/11 04:58:43;;;;;;;3.90;3.60;;;;;20.00;99617.00;;;;2068892;28;20290;-43
2021/04/11 04:59:51;;;;;;;3.85;3.55;;;;;20.00;99623.00;;;;2059738;28;20225;-44
2021/04/11 05:00:55;;;;;;;4.25;3.95;;;;;20.00;99623.00;;;;2061787;28;20707;-44
2021/04/11 05:02:14;;;;;;;3.65;3.45;;;;;20.00;99616.00;;;;2061320;28;20983;-43
2021/04/11 05:03:20;;;;;;;3.90;3.70;;;;;20.10;99627.00;;;;2072952;28;20222;-43
2021/04/11 05:04:26;;;;;;;4.40;4.10;;;;;20.10;99630.00;;;;2073952;28;21181;-45
2021/04/11 05:05:26;;;;;;;3.58;3.28;;;;;20.10;99632.00;;;;2069101;28;20734;-44
2021/04/11 05:06:36;;;;;;;4.00;3.70;;;;;20.10;99637.00;;;;2065702;28;20219;-44
2021/04/11 05:07:42;;;;;;;3.05;2.85;;;;;20.10;99647.00;;;;2060611;28;20312;-45
2021/04/11 05:08:48;;;;;;;3.00;2.80;;;;;20.10;99647.00;;;;2066168;28;20632;-44
2021/04/11 05:10:03;;;;;;;3.30;3.00;;;;;20.10;99642.00;;;;2072856;28;20304;-44
2021/04/11 05:11:11;;;;;;;3.70;3.50;;;;;20.10;99637.00;;;;2067394;28;20207;-44
2021/04/11 05:12:20;;;;;;;3.35;2.83;;;;;20.10;99642.00;;;;2065886;28;20723;-44
2021/04/11 05:13:22;;;;;;;3.40;3.10;;;;;20.10;99641.00;;;;2075232;28;20225;-43
2021/04/11 05:14:24;;;;;;;4.00;3.70;;;;;20.10;99641.00;;;;2069184;28;20222;-43
2021/04/11 05:15:27;;;;;;;2.88;2.60;;;;;20.10;99649.00;;;;2065234;28;20214;-44
2021/04/11 05:16:31;;;;;;;2.80;2.60;;;;;20.20;99652.00;;;;2053049;28;20282;-45
2021/04/11 05:17:52;;;;;;;3.20;3.00;;;;;20.20;99650.00;;;;2065012;28;20211;-44
2021/04/11 05:19:04;;;;;;;3.13;2.92;;;;;20.20;99653.00;;;;2072426;28;20578;-44
2021/04/11 05:20:11;;;;;;;3.25;3.05;;;;;20.20;99659.00;;;;2064216;28;20257;-44
2021/04/11 05:21:32;;;;;;;3.10;2.90;;;;;20.20;99652.00;;;;2067582;28;20280;-45
2021/04/11 05:22:37;;;;;;;3.25;3.05;;;;;20.20;99663.00;;;;2059693;28;20338;-44
2021/04/11 05:23:49;;;;;;;3.17;2.97;;;;;20.20;99658.00;;;;2062840;28;20211;-44